sensor_id;sensor_type;location;lat;lon;timestamp;P1;durP1;ratioP1;P2;durP2;ratioP2
35743;SDS011;21867;52.012;4.324;2023-07-31T00:00:13;21.77;;;6.40;;
35743;SDS011;21867;52.012;4.324;2023-07-31T00:02:41;20.93;;;6.87;;
35743;SDS011;21867;52.012;4.324;2023-07-31T00:05:09;11.50;;;5.43;;
35743;SDS011;21867;52.012;4.324;2023-07-31T00:13:30;15.47;;;5.80;;
35743;SDS011;21867;52.012;4.324;2023-07-31T00:15:57;20.47;;;7.20;;
35743;SDS011;21867;52.012;4.324;2023-07-31T00:18:24;20.03;;;5.87;;
35743;SDS011;21867;52.012;4.324;2023-07-31T00:20:53;19.20;;;7.30;;
35743;SDS011;21867;52.012;4.324;2023-07-31T00:23:20;27.93;;;7.67;;
35743;SDS011;21867;52.012;4.324;2023-07-31T00:28:45;19.93;;;6.47;;
35743;SDS011;21867;52.012;4.324;2023-07-31T00:31:13;22.97;;;8.60;;
35743;SDS011;21867;52.012;4.324;2023-07-31T00:33:40;13.50;;;5.93;;
35743;SDS011;21867;52.012;4.324;2023-07-31T00:36:27;22.40;;;6.90;;
35743;SDS011;21867;52.012;4.324;2023-07-31T00:46:24;16.07;;;6.63;;
35743;SDS011;21867;52.012;4.324;2023-07-31T00:48:53;16.70;;;6.93;;
35743;SDS011;21867;52.012;4.324;2023-07-31T00:51:20;15.73;;;6.30;;
35743;SDS011;21867;52.012;4.324;2023-07-31T00:53:50;16.07;;;7.67;;
35743;SDS011;21867;52.012;4.324;2023-07-31T00:59:43;12.83;;;5.17;;
35743;SDS011;21867;52.012;4.324;2023-07-31T01:02:10;12.33;;;5.57;;
35743;SDS011;21867;52.012;4.324;2023-07-31T01:04:38;17.30;;;5.87;;
35743;SDS011;21867;52.012;4.324;2023-07-31T01:13:23;24.80;;;8.33;;
35743;SDS011;21867;52.012;4.324;2023-07-31T01:15:50;31.63;;;8.47;;
35743;SDS011;21867;52.012;4.324;2023-07-31T01:18:17;16.20;;;5.90;;
35743;SDS011;21867;52.012;4.324;2023-07-31T01:20:46;19.40;;;7.37;;
35743;SDS011;21867;52.012;4.324;2023-07-31T01:23:34;16.33;;;6.83;;
35743;SDS011;21867;52.012;4.324;2023-07-31T01:43:26;20.47;;;6.70;;
35743;SDS011;21867;52.012;4.324;2023-07-31T01:45:53;19.53;;;6.50;;
35743;SDS011;21867;52.012;4.324;2023-07-31T01:48:23;17.70;;;6.33;;
35743;SDS011;21867;52.012;4.324;2023-07-31T01:50:50;16.17;;;5.00;;
35743;SDS011;21867;52.012;4.324;2023-07-31T01:53:17;22.20;;;7.20;;
35743;SDS011;21867;52.012;4.324;2023-07-31T02:12:40;27.40;;;7.20;;
35743;SDS011;21867;52.012;4.324;2023-07-31T02:15:07;21.13;;;8.27;;
35743;SDS011;21867;52.012;4.324;2023-07-31T02:17:35;17.47;;;6.87;;
35743;SDS011;21867;52.012;4.324;2023-07-31T02:20:03;17.87;;;7.57;;
35743;SDS011;21867;52.012;4.324;2023-07-31T02:22:30;14.07;;;5.20;;
35743;SDS011;21867;52.012;4.324;2023-07-31T02:25:03;19.93;;;6.77;;
35743;SDS011;21867;52.012;4.324;2023-07-31T02:27:30;12.37;;;5.50;;
35743;SDS011;21867;52.012;4.324;2023-07-31T02:29:59;23.93;;;7.27;;
35743;SDS011;21867;52.012;4.324;2023-07-31T02:32:26;20.20;;;6.70;;
35743;SDS011;21867;52.012;4.324;2023-07-31T02:43:48;22.48;;;7.57;;
35743;SDS011;21867;52.012;4.324;2023-07-31T02:46:17;19.57;;;6.30;;
35743;SDS011;21867;52.012;4.324;2023-07-31T02:48:44;16.20;;;6.07;;
35743;SDS011;21867;52.012;4.324;2023-07-31T02:51:12;20.53;;;6.53;;
35743;SDS011;21867;52.012;4.324;2023-07-31T02:53:39;27.27;;;7.60;;
35743;SDS011;21867;52.012;4.324;2023-07-31T02:56:07;23.70;;;8.27;;
35743;SDS011;21867;52.012;4.324;2023-07-31T02:58:34;27.60;;;7.60;;
35743;SDS011;21867;52.012;4.324;2023-07-31T03:01:02;18.70;;;7.10;;
35743;SDS011;21867;52.012;4.324;2023-07-31T03:03:30;21.33;;;7.70;;
35743;SDS011;21867;52.012;4.324;2023-07-31T03:06:10;24.53;;;7.00;;
35743;SDS011;21867;52.012;4.324;2023-07-31T03:08:38;20.13;;;7.13;;
35743;SDS011;21867;52.012;4.324;2023-07-31T03:11:05;17.43;;;5.50;;
35743;SDS011;21867;52.012;4.324;2023-07-31T03:13:32;14.03;;;6.37;;
35743;SDS011;21867;52.012;4.324;2023-07-31T03:16:00;16.73;;;5.83;;
35743;SDS011;21867;52.012;4.324;2023-07-31T03:18:27;13.50;;;5.33;;
35743;SDS011;21867;52.012;4.324;2023-07-31T03:20:56;22.60;;;6.70;;
35743;SDS011;21867;52.012;4.324;2023-07-31T03:23:23;23.23;;;6.47;;
35743;SDS011;21867;52.012;4.324;2023-07-31T03:42:53;12.87;;;4.23;;
35743;SDS011;21867;52.012;4.324;2023-07-31T03:45:21;5.97;;;2.73;;
35743;SDS011;21867;52.012;4.324;2023-07-31T03:47:48;6.20;;;3.30;;
35743;SDS011;21867;52.012;4.324;2023-07-31T03:50:15;7.73;;;3.40;;
35743;SDS011;21867;52.012;4.324;2023-07-31T03:52:43;8.37;;;3.20;;
35743;SDS011;21867;52.012;4.324;2023-07-31T03:55:15;7.50;;;3.40;;
35743;SDS011;21867;52.012;4.324;2023-07-31T03:57:42;10.77;;;3.80;;
35743;SDS011;21867;52.012;4.324;2023-07-31T04:00:11;7.30;;;3.30;;
35743;SDS011;21867;52.012;4.324;2023-07-31T04:02:40;7.63;;;3.33;;
35743;SDS011;21867;52.012;4.324;2023-07-31T04:14:54;5.20;;;2.23;;
35743;SDS011;21867;52.012;4.324;2023-07-31T04:17:23;5.67;;;2.67;;
35743;SDS011;21867;52.012;4.324;2023-07-31T04:19:50;4.13;;;2.00;;
35743;SDS011;21867;52.012;4.324;2023-07-31T04:22:18;6.00;;;2.47;;
35743;SDS011;21867;52.012;4.324;2023-07-31T04:24:45;4.70;;;2.13;;
35743;SDS011;21867;52.012;4.324;2023-07-31T04:27:13;2.70;;;1.87;;
35743;SDS011;21867;52.012;4.324;2023-07-31T04:29:40;5.00;;;2.27;;
35743;SDS011;21867;52.012;4.324;2023-07-31T04:32:07;2.17;;;1.90;;
35743;SDS011;21867;52.012;4.324;2023-07-31T04:34:42;2.50;;;1.57;;
35743;SDS011;21867;52.012;4.324;2023-07-31T04:37:13;2.40;;;1.90;;
35743;SDS011;21867;52.012;4.324;2023-07-31T04:42:28;2.17;;;1.90;;
35743;SDS011;21867;52.012;4.324;2023-07-31T04:44:55;3.63;;;2.13;;
35743;SDS011;21867;52.012;4.324;2023-07-31T04:47:23;2.43;;;2.23;;
35743;SDS011;21867;52.012;4.324;2023-07-31T04:49:52;2.40;;;2.20;;
35743;SDS011;21867;52.012;4.324;2023-07-31T04:52:19;4.17;;;2.50;;
35743;SDS011;21867;52.012;4.324;2023-07-31T04:54:46;3.63;;;2.70;;
35743;SDS011;21867;52.012;4.324;2023-07-31T04:57:14;2.77;;;2.40;;
35743;SDS011;21867;52.012;4.324;2023-07-31T04:59:41;5.03;;;2.57;;
35743;SDS011;21867;52.012;4.324;2023-07-31T05:02:08;4.90;;;2.27;;
35743;SDS011;21867;52.012;4.324;2023-07-31T05:11:03;4.27;;;2.97;;
35743;SDS011;21867;52.012;4.324;2023-07-31T05:13:31;3.43;;;2.13;;
35743;SDS011;21867;52.012;4.324;2023-07-31T05:15:58;2.93;;;2.40;;
35743;SDS011;21867;52.012;4.324;2023-07-31T05:18:28;6.00;;;2.27;;
35743;SDS011;21867;52.012;4.324;2023-07-31T05:20:56;4.33;;;2.80;;
35743;SDS011;21867;52.012;4.324;2023-07-31T05:23:23;2.50;;;2.00;;
35743;SDS011;21867;52.012;4.324;2023-07-31T05:25:51;4.03;;;2.10;;
35743;SDS011;21867;52.012;4.324;2023-07-31T05:28:20;2.53;;;2.23;;
35743;SDS011;21867;52.012;4.324;2023-07-31T05:30:48;4.70;;;2.23;;
35743;SDS011;21867;52.012;4.324;2023-07-31T05:33:15;3.27;;;1.90;;
35743;SDS011;21867;52.012;4.324;2023-07-31T10:10:39;9.55;;;3.65;;
35743;SDS011;21867;52.012;4.324;2023-07-31T10:13:08;5.97;;;2.57;;
35743;SDS011;21867;52.012;4.324;2023-07-31T10:15:36;12.20;;;3.67;;
35743;SDS011;21867;52.012;4.324;2023-07-31T10:18:04;8.33;;;3.07;;
35743;SDS011;21867;52.012;4.324;2023-07-31T10:20:33;16.80;;;4.10;;
35743;SDS011;21867;52.012;4.324;2023-07-31T10:23:19;9.60;;;3.30;;
35743;SDS011;21867;52.012;4.324;2023-07-31T10:25:51;12.93;;;4.57;;
35743;SDS011;21867;52.012;4.324;2023-07-31T10:28:30;10.27;;;3.07;;
35743;SDS011;21867;52.012;4.324;2023-07-31T10:31:00;10.23;;;3.03;;
35743;SDS011;21867;52.012;4.324;2023-07-31T10:33:27;12.17;;;3.73;;
35743;SDS011;21867;52.012;4.324;2023-07-31T10:41:31;11.37;;;3.30;;
35743;SDS011;21867;52.012;4.324;2023-07-31T10:43:59;11.33;;;3.40;;
35743;SDS011;21867;52.012;4.324;2023-07-31T10:46:27;10.30;;;3.00;;
35743;SDS011;21867;52.012;4.324;2023-07-31T10:48:58;5.40;;;2.30;;
35743;SDS011;21867;52.012;4.324;2023-07-31T10:51:32;8.60;;;3.30;;
35743;SDS011;21867;52.012;4.324;2023-07-31T10:54:09;7.63;;;2.60;;
35743;SDS011;21867;52.012;4.324;2023-07-31T10:56:38;11.43;;;3.78;;
35743;SDS011;21867;52.012;4.324;2023-07-31T10:59:06;11.00;;;4.33;;
35743;SDS011;21867;52.012;4.324;2023-07-31T11:01:52;12.43;;;4.00;;
35743;SDS011;21867;52.012;4.324;2023-07-31T11:04:23;13.07;;;3.27;;
35743;SDS011;21867;52.012;4.324;2023-07-31T11:06:57;6.67;;;2.67;;
35743;SDS011;21867;52.012;4.324;2023-07-31T11:09:24;10.83;;;2.87;;
35743;SDS011;21867;52.012;4.324;2023-07-31T11:11:53;9.27;;;3.50;;
35743;SDS011;21867;52.012;4.324;2023-07-31T11:14:21;6.27;;;2.93;;
35743;SDS011;21867;52.012;4.324;2023-07-31T11:16:49;8.73;;;3.00;;
35743;SDS011;21867;52.012;4.324;2023-07-31T11:19:21;8.30;;;3.07;;
35743;SDS011;21867;52.012;4.324;2023-07-31T11:21:48;9.43;;;2.73;;
35743;SDS011;21867;52.012;4.324;2023-07-31T11:24:24;6.87;;;2.77;;
35743;SDS011;21867;52.012;4.324;2023-07-31T11:29:49;11.37;;;3.10;;
35743;SDS011;21867;52.012;4.324;2023-07-31T11:32:17;10.20;;;2.60;;
35743;SDS011;21867;52.012;4.324;2023-07-31T11:34:51;6.53;;;2.50;;
35743;SDS011;21867;52.012;4.324;2023-07-31T11:37:18;8.73;;;2.77;;
35743;SDS011;21867;52.012;4.324;2023-07-31T11:39:57;10.70;;;2.78;;
35743;SDS011;21867;52.012;4.324;2023-07-31T11:42:25;6.63;;;2.77;;
35743;SDS011;21867;52.012;4.324;2023-07-31T11:44:53;5.90;;;2.03;;
35743;SDS011;21867;52.012;4.324;2023-07-31T11:47:21;10.70;;;2.43;;
35743;SDS011;21867;52.012;4.324;2023-07-31T11:49:48;7.33;;;2.70;;
35743;SDS011;21867;52.012;4.324;2023-07-31T11:52:25;8.20;;;2.70;;
35743;SDS011;21867;52.012;4.324;2023-07-31T11:55:05;10.60;;;3.20;;
35743;SDS011;21867;52.012;4.324;2023-07-31T12:00:23;8.13;;;2.43;;
35743;SDS011;21867;52.012;4.324;2023-07-31T12:02:51;7.47;;;2.67;;
35743;SDS011;21867;52.012;4.324;2023-07-31T12:05:18;8.87;;;2.83;;
35743;SDS011;21867;52.012;4.324;2023-07-31T12:07:47;4.87;;;2.30;;
35743;SDS011;21867;52.012;4.324;2023-07-31T12:10:24;8.20;;;2.63;;
35743;SDS011;21867;52.012;4.324;2023-07-31T12:13:04;4.13;;;2.43;;
35743;SDS011;21867;52.012;4.324;2023-07-31T12:15:37;7.73;;;2.87;;
35743;SDS011;21867;52.012;4.324;2023-07-31T12:18:05;8.87;;;2.67;;
35743;SDS011;21867;52.012;4.324;2023-07-31T12:20:33;4.43;;;2.13;;
35743;SDS011;21867;52.012;4.324;2023-07-31T12:29:33;4.13;;;1.83;;
35743;SDS011;21867;52.012;4.324;2023-07-31T12:32:20;3.77;;;1.57;;
35743;SDS011;21867;52.012;4.324;2023-07-31T12:34:47;6.30;;;2.60;;
35743;SDS011;21867;52.012;4.324;2023-07-31T12:37:15;4.43;;;2.53;;
35743;SDS011;21867;52.012;4.324;2023-07-31T12:39:42;5.30;;;2.00;;
35743;SDS011;21867;52.012;4.324;2023-07-31T12:42:10;9.80;;;2.60;;
35743;SDS011;21867;52.012;4.324;2023-07-31T12:44:37;2.97;;;1.80;;
35743;SDS011;21867;52.012;4.324;2023-07-31T12:47:05;2.37;;;1.73;;
35743;SDS011;21867;52.012;4.324;2023-07-31T12:49:33;3.87;;;2.23;;
35743;SDS011;21867;52.012;4.324;2023-07-31T12:52:01;4.30;;;1.73;;
35743;SDS011;21867;52.012;4.324;2023-07-31T12:54:28;5.83;;;1.60;;
35743;SDS011;21867;52.012;4.324;2023-07-31T12:56:55;3.67;;;1.83;;
35743;SDS011;21867;52.012;4.324;2023-07-31T12:59:24;3.10;;;1.80;;
35743;SDS011;21867;52.012;4.324;2023-07-31T13:01:51;4.17;;;1.70;;
35743;SDS011;21867;52.012;4.324;2023-07-31T13:04:19;2.53;;;1.90;;
35743;SDS011;21867;52.012;4.324;2023-07-31T13:06:48;5.53;;;2.10;;
35743;SDS011;21867;52.012;4.324;2023-07-31T13:09:17;4.27;;;1.80;;
35743;SDS011;21867;52.012;4.324;2023-07-31T13:11:45;4.27;;;2.17;;
35743;SDS011;21867;52.012;4.324;2023-07-31T13:14:12;1.90;;;1.60;;
35743;SDS011;21867;52.012;4.324;2023-07-31T13:16:39;3.55;;;1.80;;
35743;SDS011;21867;52.012;4.324;2023-07-31T13:19:07;2.63;;;2.00;;
35743;SDS011;21867;52.012;4.324;2023-07-31T13:21:35;2.37;;;1.50;;
35743;SDS011;21867;52.012;4.324;2023-07-31T13:24:04;3.53;;;1.63;;
35743;SDS011;21867;52.012;4.324;2023-07-31T13:26:31;1.87;;;1.40;;
35743;SDS011;21867;52.012;4.324;2023-07-31T13:28:58;5.50;;;1.93;;
35743;SDS011;21867;52.012;4.324;2023-07-31T13:31:26;1.97;;;1.30;;
35743;SDS011;21867;52.012;4.324;2023-07-31T13:33:53;2.33;;;1.30;;
35743;SDS011;21867;52.012;4.324;2023-07-31T13:36:20;1.70;;;1.20;;
35743;SDS011;21867;52.012;4.324;2023-07-31T13:38:48;1.50;;;1.33;;
35743;SDS011;21867;52.012;4.324;2023-07-31T13:52:45;2.00;;;1.53;;
35743;SDS011;21867;52.012;4.324;2023-07-31T13:55:13;2.77;;;1.80;;
35743;SDS011;21867;52.012;4.324;2023-07-31T14:01:30;3.85;;;1.52;;
35743;SDS011;21867;52.012;4.324;2023-07-31T14:03:58;5.17;;;2.30;;
35743;SDS011;21867;52.012;4.324;2023-07-31T14:06:25;2.80;;;2.33;;
35743;SDS011;21867;52.012;4.324;2023-07-31T14:08:54;3.43;;;1.93;;
35743;SDS011;21867;52.012;4.324;2023-07-31T14:14:12;1.93;;;1.50;;
35743;SDS011;21867;52.012;4.324;2023-07-31T14:16:40;1.73;;;1.00;;
35743;SDS011;21867;52.012;4.324;2023-07-31T14:19:08;2.37;;;1.10;;
35743;SDS011;21867;52.012;4.324;2023-07-31T14:21:35;1.10;;;1.10;;
35743;SDS011;21867;52.012;4.324;2023-07-31T14:24:05;1.40;;;1.00;;
35743;SDS011;21867;52.012;4.324;2023-07-31T14:26:33;0.87;;;0.80;;
35743;SDS011;21867;52.012;4.324;2023-07-31T14:29:00;1.20;;;1.10;;
35743;SDS011;21867;52.012;4.324;2023-07-31T14:31:28;1.23;;;1.10;;
35743;SDS011;21867;52.012;4.324;2023-07-31T14:34:01;0.87;;;0.87;;
35743;SDS011;21867;52.012;4.324;2023-07-31T14:36:28;1.33;;;0.90;;
35743;SDS011;21867;52.012;4.324;2023-07-31T14:38:55;1.70;;;1.20;;
35743;SDS011;21867;52.012;4.324;2023-07-31T14:41:30;1.77;;;1.20;;
35743;SDS011;21867;52.012;4.324;2023-07-31T14:43:58;3.10;;;1.13;;
35743;SDS011;21867;52.012;4.324;2023-07-31T14:46:25;5.37;;;1.37;;
35743;SDS011;21867;52.012;4.324;2023-07-31T14:48:53;2.22;;;0.95;;
35743;SDS011;21867;52.012;4.324;2023-07-31T14:51:21;2.13;;;1.10;;
35743;SDS011;21867;52.012;4.324;2023-07-31T14:53:48;0.93;;;0.93;;
35743;SDS011;21867;52.012;4.324;2023-07-31T14:56:16;1.97;;;1.00;;
35743;SDS011;21867;52.012;4.324;2023-07-31T14:58:44;0.93;;;0.93;;
35743;SDS011;21867;52.012;4.324;2023-07-31T15:01:12;1.67;;;1.30;;
35743;SDS011;21867;52.012;4.324;2023-07-31T15:03:42;0.93;;;0.93;;
35743;SDS011;21867;52.012;4.324;2023-07-31T15:06:10;1.80;;;0.90;;
35743;SDS011;21867;52.012;4.324;2023-07-31T15:08:38;0.80;;;0.80;;
35743;SDS011;21867;52.012;4.324;2023-07-31T15:11:05;1.17;;;0.80;;
35743;SDS011;21867;52.012;4.324;2023-07-31T15:13:32;0.90;;;0.90;;
35743;SDS011;21867;52.012;4.324;2023-07-31T15:16:01;2.63;;;1.10;;
35743;SDS011;21867;52.012;4.324;2023-07-31T15:18:29;1.80;;;0.90;;
35743;SDS011;21867;52.012;4.324;2023-07-31T15:20:56;0.87;;;0.80;;
35743;SDS011;21867;52.012;4.324;2023-07-31T15:23:24;0.77;;;0.77;;
35743;SDS011;21867;52.012;4.324;2023-07-31T15:25:51;0.93;;;0.93;;
35743;SDS011;21867;52.012;4.324;2023-07-31T15:28:18;1.10;;;1.10;;
35743;SDS011;21867;52.012;4.324;2023-07-31T15:30:46;0.90;;;0.90;;
35743;SDS011;21867;52.012;4.324;2023-07-31T15:33:21;1.03;;;1.03;;
35743;SDS011;21867;52.012;4.324;2023-07-31T15:35:48;1.55;;;1.20;;
35743;SDS011;21867;52.012;4.324;2023-07-31T15:38:16;1.77;;;1.20;;
35743;SDS011;21867;52.012;4.324;2023-07-31T15:40:43;1.00;;;1.00;;
35743;SDS011;21867;52.012;4.324;2023-07-31T15:43:10;3.13;;;1.00;;
35743;SDS011;21867;52.012;4.324;2023-07-31T15:45:38;1.23;;;1.10;;
35743;SDS011;21867;52.012;4.324;2023-07-31T15:48:06;0.90;;;0.90;;
35743;SDS011;21867;52.012;4.324;2023-07-31T15:50:35;1.23;;;0.70;;
35743;SDS011;21867;52.012;4.324;2023-07-31T15:53:03;1.37;;;0.87;;
35743;SDS011;21867;52.012;4.324;2023-07-31T15:55:33;1.33;;;0.97;;
35743;SDS011;21867;52.012;4.324;2023-07-31T15:58:00;0.73;;;0.73;;
35743;SDS011;21867;52.012;4.324;2023-07-31T16:00:27;1.10;;;1.03;;
35743;SDS011;21867;52.012;4.324;2023-07-31T16:02:55;1.40;;;1.30;;
35743;SDS011;21867;52.012;4.324;2023-07-31T16:05:22;3.83;;;1.30;;
35743;SDS011;21867;52.012;4.324;2023-07-31T16:07:52;2.53;;;1.47;;
35743;SDS011;21867;52.012;4.324;2023-07-31T16:10:19;5.40;;;2.30;;
35743;SDS011;21867;52.012;4.324;2023-07-31T16:12:49;7.43;;;2.37;;
35743;SDS011;21867;52.012;4.324;2023-07-31T16:15:17;8.87;;;2.17;;
35743;SDS011;21867;52.012;4.324;2023-07-31T16:17:44;4.90;;;1.90;;
35743;SDS011;21867;52.012;4.324;2023-07-31T16:20:12;6.65;;;2.20;;
35743;SDS011;21867;52.012;4.324;2023-07-31T16:22:39;7.00;;;2.27;;
35743;SDS011;21867;52.012;4.324;2023-07-31T16:25:09;6.83;;;2.03;;
35743;SDS011;21867;52.012;4.324;2023-07-31T16:27:36;7.13;;;2.30;;
35743;SDS011;21867;52.012;4.324;2023-07-31T16:30:04;7.40;;;2.47;;
35743;SDS011;21867;52.012;4.324;2023-07-31T16:32:32;6.37;;;2.40;;
35743;SDS011;21867;52.012;4.324;2023-07-31T16:34:59;7.83;;;2.93;;
35743;SDS011;21867;52.012;4.324;2023-07-31T16:37:29;9.53;;;2.57;;
35743;SDS011;21867;52.012;4.324;2023-07-31T16:39:57;10.53;;;3.90;;
35743;SDS011;21867;52.012;4.324;2023-07-31T16:42:25;7.43;;;2.87;;
35743;SDS011;21867;52.012;4.324;2023-07-31T16:44:53;10.47;;;2.33;;
35743;SDS011;21867;52.012;4.324;2023-07-31T16:47:20;9.40;;;2.93;;
35743;SDS011;21867;52.012;4.324;2023-07-31T16:49:48;11.70;;;3.33;;
35743;SDS011;21867;52.012;4.324;2023-07-31T16:52:15;5.93;;;2.13;;
35743;SDS011;21867;52.012;4.324;2023-07-31T16:54:42;10.40;;;2.40;;
35743;SDS011;21867;52.012;4.324;2023-07-31T16:57:10;10.63;;;3.43;;
35743;SDS011;21867;52.012;4.324;2023-07-31T16:59:39;8.33;;;2.73;;
35743;SDS011;21867;52.012;4.324;2023-07-31T17:02:06;11.60;;;3.17;;
35743;SDS011;21867;52.012;4.324;2023-07-31T17:04:34;7.70;;;2.63;;
35743;SDS011;21867;52.012;4.324;2023-07-31T17:07:02;8.23;;;2.63;;
35743;SDS011;21867;52.012;4.324;2023-07-31T17:09:29;7.93;;;2.10;;
35743;SDS011;21867;52.012;4.324;2023-07-31T17:11:56;7.53;;;2.33;;
35743;SDS011;21867;52.012;4.324;2023-07-31T17:14:24;5.43;;;2.00;;
35743;SDS011;21867;52.012;4.324;2023-07-31T17:16:53;10.33;;;2.40;;
35743;SDS011;21867;52.012;4.324;2023-07-31T17:19:20;8.63;;;2.47;;
35743;SDS011;21867;52.012;4.324;2023-07-31T17:21:47;10.40;;;3.10;;
35743;SDS011;21867;52.012;4.324;2023-07-31T17:24:15;7.47;;;3.00;;
35743;SDS011;21867;52.012;4.324;2023-07-31T17:26:43;10.73;;;2.60;;
35743;SDS011;21867;52.012;4.324;2023-07-31T17:29:10;15.37;;;2.73;;
35743;SDS011;21867;52.012;4.324;2023-07-31T17:31:38;6.93;;;3.13;;
35743;SDS011;21867;52.012;4.324;2023-07-31T17:34:07;12.83;;;3.40;;
35743;SDS011;21867;52.012;4.324;2023-07-31T17:36:34;12.40;;;3.77;;
35743;SDS011;21867;52.012;4.324;2023-07-31T17:39:02;10.30;;;3.40;;
35743;SDS011;21867;52.012;4.324;2023-07-31T17:41:29;8.63;;;3.10;;
35743;SDS011;21867;52.012;4.324;2023-07-31T17:43:56;7.63;;;2.60;;
35743;SDS011;21867;52.012;4.324;2023-07-31T17:46:24;7.70;;;2.93;;
35743;SDS011;21867;52.012;4.324;2023-07-31T17:48:51;8.20;;;3.00;;
35743;SDS011;21867;52.012;4.324;2023-07-31T17:51:20;11.73;;;2.87;;
35743;SDS011;21867;52.012;4.324;2023-07-31T17:53:47;13.10;;;3.33;;
35743;SDS011;21867;52.012;4.324;2023-07-31T17:56:15;11.80;;;3.40;;
35743;SDS011;21867;52.012;4.324;2023-07-31T17:58:42;6.60;;;3.00;;
35743;SDS011;21867;52.012;4.324;2023-07-31T18:01:09;11.67;;;2.60;;
35743;SDS011;21867;52.012;4.324;2023-07-31T18:03:37;8.73;;;2.73;;
35743;SDS011;21867;52.012;4.324;2023-07-31T18:06:05;7.13;;;2.10;;
35743;SDS011;21867;52.012;4.324;2023-07-31T18:08:34;15.07;;;3.37;;
35743;SDS011;21867;52.012;4.324;2023-07-31T18:11:02;9.47;;;2.50;;
35743;SDS011;21867;52.012;4.324;2023-07-31T18:13:29;5.87;;;2.43;;
35743;SDS011;21867;52.012;4.324;2023-07-31T18:15:57;9.90;;;2.80;;
35743;SDS011;21867;52.012;4.324;2023-07-31T18:18:24;6.70;;;2.63;;
35743;SDS011;21867;52.012;4.324;2023-07-31T18:20:51;6.10;;;2.43;;
35743;SDS011;21867;52.012;4.324;2023-07-31T18:23:19;5.60;;;2.37;;
35743;SDS011;21867;52.012;4.324;2023-07-31T18:25:47;7.10;;;2.33;;
35743;SDS011;21867;52.012;4.324;2023-07-31T18:28:15;4.67;;;1.80;;
35743;SDS011;21867;52.012;4.324;2023-07-31T18:30:42;8.13;;;2.07;;
35743;SDS011;21867;52.012;4.324;2023-07-31T18:33:09;5.83;;;1.90;;
35743;SDS011;21867;52.012;4.324;2023-07-31T18:35:37;3.53;;;1.80;;
35743;SDS011;21867;52.012;4.324;2023-07-31T18:38:05;5.53;;;1.97;;
35743;SDS011;21867;52.012;4.324;2023-07-31T18:40:32;4.63;;;2.33;;
35743;SDS011;21867;52.012;4.324;2023-07-31T18:43:01;5.53;;;1.90;;
35743;SDS011;21867;52.012;4.324;2023-07-31T18:45:28;4.33;;;2.07;;
35743;SDS011;21867;52.012;4.324;2023-07-31T18:47:55;3.47;;;1.97;;
35743;SDS011;21867;52.012;4.324;2023-07-31T18:50:23;4.43;;;1.67;;
35743;SDS011;21867;52.012;4.324;2023-07-31T18:52:50;6.17;;;2.13;;
35743;SDS011;21867;52.012;4.324;2023-07-31T18:55:18;6.07;;;2.10;;
35743;SDS011;21867;52.012;4.324;2023-07-31T18:57:45;5.30;;;1.80;;
35743;SDS011;21867;52.012;4.324;2023-07-31T19:00:14;4.63;;;2.40;;
35743;SDS011;21867;52.012;4.324;2023-07-31T19:02:42;8.70;;;2.33;;
35743;SDS011;21867;52.012;4.324;2023-07-31T19:05:09;3.13;;;2.30;;
35743;SDS011;21867;52.012;4.324;2023-07-31T19:07:36;4.87;;;1.90;;
35743;SDS011;21867;52.012;4.324;2023-07-31T19:10:04;6.57;;;2.43;;
35743;SDS011;21867;52.012;4.324;2023-07-31T19:12:42;4.70;;;2.20;;
35743;SDS011;21867;52.012;4.324;2023-07-31T19:15:09;6.73;;;2.73;;
35743;SDS011;21867;52.012;4.324;2023-07-31T19:17:39;6.47;;;2.80;;
35743;SDS011;21867;52.012;4.324;2023-07-31T19:20:07;8.67;;;2.83;;
35743;SDS011;21867;52.012;4.324;2023-07-31T19:22:34;5.70;;;2.87;;
35743;SDS011;21867;52.012;4.324;2023-07-31T19:25:02;8.43;;;2.93;;
35743;SDS011;21867;52.012;4.324;2023-07-31T19:27:29;8.10;;;2.73;;
35743;SDS011;21867;52.012;4.324;2023-07-31T19:29:56;9.17;;;3.27;;
35743;SDS011;21867;52.012;4.324;2023-07-31T19:32:27;10.67;;;3.03;;
35743;SDS011;21867;52.012;4.324;2023-07-31T19:34:56;11.60;;;2.47;;
35743;SDS011;21867;52.012;4.324;2023-07-31T19:37:23;10.57;;;3.23;;
35743;SDS011;21867;52.012;4.324;2023-07-31T19:39:51;9.93;;;2.50;;
35743;SDS011;21867;52.012;4.324;2023-07-31T19:42:21;5.60;;;2.20;;
35743;SDS011;21867;52.012;4.324;2023-07-31T19:44:48;8.03;;;2.80;;
35743;SDS011;21867;52.012;4.324;2023-07-31T19:47:15;9.07;;;3.00;;
35743;SDS011;21867;52.012;4.324;2023-07-31T19:49:43;7.80;;;2.33;;
35743;SDS011;21867;52.012;4.324;2023-07-31T19:52:11;8.13;;;2.53;;
35743;SDS011;21867;52.012;4.324;2023-07-31T19:54:39;9.17;;;3.33;;
35743;SDS011;21867;52.012;4.324;2023-07-31T19:57:06;5.40;;;2.33;;
35743;SDS011;21867;52.012;4.324;2023-07-31T19:59:34;5.97;;;2.17;;
35743;SDS011;21867;52.012;4.324;2023-07-31T20:02:01;9.17;;;2.10;;
35743;SDS011;21867;52.012;4.324;2023-07-31T20:04:29;8.63;;;2.13;;
35743;SDS011;21867;52.012;4.324;2023-07-31T20:06:57;7.07;;;2.20;;
35743;SDS011;21867;52.012;4.324;2023-07-31T20:09:28;7.83;;;2.10;;
35743;SDS011;21867;52.012;4.324;2023-07-31T20:11:55;8.87;;;3.00;;
35743;SDS011;21867;52.012;4.324;2023-07-31T20:14:23;6.27;;;2.30;;
35743;SDS011;21867;52.012;4.324;2023-07-31T20:16:52;8.07;;;2.57;;
35743;SDS011;21867;52.012;4.324;2023-07-31T20:19:20;4.80;;;2.33;;
35743;SDS011;21867;52.012;4.324;2023-07-31T20:21:48;7.77;;;2.97;;
35743;SDS011;21867;52.012;4.324;2023-07-31T20:24:15;9.93;;;2.70;;
35743;SDS011;21867;52.012;4.324;2023-07-31T20:26:45;7.33;;;2.47;;
35743;SDS011;21867;52.012;4.324;2023-07-31T20:29:12;9.77;;;2.53;;
35743;SDS011;21867;52.012;4.324;2023-07-31T20:31:43;6.93;;;2.57;;
35743;SDS011;21867;52.012;4.324;2023-07-31T20:34:11;6.13;;;2.80;;
35743;SDS011;21867;52.012;4.324;2023-07-31T20:36:39;10.73;;;2.47;;
35743;SDS011;21867;52.012;4.324;2023-07-31T20:39:08;6.77;;;2.77;;
35743;SDS011;21867;52.012;4.324;2023-07-31T20:41:36;10.00;;;3.00;;
35743;SDS011;21867;52.012;4.324;2023-07-31T20:44:05;9.37;;;2.23;;
35743;SDS011;21867;52.012;4.324;2023-07-31T20:46:32;11.57;;;2.60;;
35743;SDS011;21867;52.012;4.324;2023-07-31T20:48:59;12.07;;;2.47;;
35743;SDS011;21867;52.012;4.324;2023-07-31T20:51:27;9.83;;;2.70;;
35743;SDS011;21867;52.012;4.324;2023-07-31T20:53:55;7.50;;;2.20;;
35743;SDS011;21867;52.012;4.324;2023-07-31T20:56:23;5.93;;;2.30;;
35743;SDS011;21867;52.012;4.324;2023-07-31T20:58:51;7.03;;;2.97;;
35743;SDS011;21867;52.012;4.324;2023-07-31T21:01:23;9.07;;;2.70;;
35743;SDS011;21867;52.012;4.324;2023-07-31T21:03:51;7.50;;;2.93;;
35743;SDS011;21867;52.012;4.324;2023-07-31T21:06:18;6.30;;;3.17;;
35743;SDS011;21867;52.012;4.324;2023-07-31T21:08:46;4.80;;;2.13;;
35743;SDS011;21867;52.012;4.324;2023-07-31T21:11:13;8.13;;;2.80;;
35743;SDS011;21867;52.012;4.324;2023-07-31T21:13:40;5.07;;;1.97;;
35743;SDS011;21867;52.012;4.324;2023-07-31T21:16:08;4.10;;;1.83;;
35743;SDS011;21867;52.012;4.324;2023-07-31T21:18:36;7.37;;;2.10;;
35743;SDS011;21867;52.012;4.324;2023-07-31T21:21:04;3.27;;;1.60;;
35743;SDS011;21867;52.012;4.324;2023-07-31T21:23:34;7.50;;;2.30;;
35743;SDS011;21867;52.012;4.324;2023-07-31T21:26:02;4.17;;;1.80;;
35743;SDS011;21867;52.012;4.324;2023-07-31T21:28:29;4.30;;;2.33;;
35743;SDS011;21867;52.012;4.324;2023-07-31T21:30:56;2.47;;;2.00;;
35743;SDS011;21867;52.012;4.324;2023-07-31T21:33:24;2.80;;;2.03;;
35743;SDS011;21867;52.012;4.324;2023-07-31T21:35:53;2.33;;;2.00;;
35743;SDS011;21867;52.012;4.324;2023-07-31T21:38:21;4.00;;;2.30;;
35743;SDS011;21867;52.012;4.324;2023-07-31T21:40:48;2.30;;;1.90;;
35743;SDS011;21867;52.012;4.324;2023-07-31T21:43:15;4.70;;;2.30;;
35743;SDS011;21867;52.012;4.324;2023-07-31T21:45:43;3.20;;;2.40;;